Latest Weather Observations for Yarrawonga

IDV60801

Issued at 6:02 pm EST Tuesday 21 April 2015 (issued every 30 minutes, with the page automatically refreshed every 10 minutes)

About weather observations | Map of weather stations | Latest weather observations for VIC | Other Formats
Station Details ID: 081124 Name: YARRAWONGA Lat: -36.03 Lon: 146.03 Height: 128.9 m
Data from the previous 72 hours. | See also: Recent months at Yarrawonga
Date/Time
EST
Temp
°C
App
Temp
°C
Dew
Point
Rel
Hum
%
Delta-T
°C
Wind Press
QNH
hPa
Press
MSL
hPa
Rain
since 9 am
mm
Dir
 
Spd
km/h
Gust
km/h
Spd
kts
Gust
kts
21/06:00pm 15.4 11.3 4.5 48 5.1 S 15 19 8 10 1025.3 1025.1 0.0
21/05:30pm 16.8 12.4 4.5 44 5.8 S 17 24 9 13 1025.0 1024.8 0.0
21/05:00pm 18.3 14.7 5.2 42 6.3 SSE 13 20 7 11 1024.9 1024.7 0.0
21/04:30pm 19.3 15.0 3.5 35 7.5 SSE 15 22 8 12 1024.7 1024.5 0.0
21/04:00pm 19.7 15.6 4.2 36 7.4 S 15 26 8 14 1024.7 1024.5 0.0
21/03:30pm 19.7 15.1 3.8 35 7.6 S 17 26 9 14 1024.9 1024.7 0.0
21/03:00pm 19.6 15.4 3.7 35 7.5 S 15 26 8 14 1025.1 1024.9 0.0
21/02:30pm 19.2 15.3 3.4 35 7.5 SSE 13 26 7 14 1025.4 1025.2 0.0
21/02:00pm 20.1 15.7 4.6 36 7.5 S 17 26 9 14 1025.6 1025.4 0.0
21/01:30pm 19.0 15.1 3.6 36 7.3 ESE 13 22 7 12 1025.7 1025.5 0.0
21/01:00pm 18.9 14.9 3.1 35 7.4 SE 13 24 7 13 1026.1 1026.0 0.0
21/12:30pm 18.5 13.9 3.6 37 7.0 S 17 26 9 14 1026.7 1026.6 0.0
21/12:00pm 18.1 13.7 4.7 41 6.4 SSW 17 28 9 15 1027.2 1027.1 0.0
21/11:30am 17.2 12.4 4.9 44 5.9 S 19 26 10 14 1027.6 1027.5 0.0
21/11:00am 16.6 11.7 4.9 46 5.6 S 20 24 11 13 1028.1 1028.0 0.0
21/10:30am 15.8 10.5 5.1 49 5.1 S 22 30 12 16 1028.4 1028.3 0.0
21/10:00am 14.9 9.7 5.4 53 4.5 SSW 22 32 12 17 1028.6 1028.5 0.0
21/09:30am 13.8 8.6 5.4 57 3.9 S 22 28 12 15 1029.0 1028.9 0.0
21/09:00am 12.4 7.8 5.6 63 3.2 SSW 19 24 10 13 1029.3 1029.2 0.0
21/08:30am 10.8 6.5 5.1 68 2.6 SSW 17 24 9 13 1029.3 1029.2 0.0
21/08:00am 9.0 4.5 4.2 72 2.1 SSW 17 22 9 12 1029.3 1029.2 0.0
21/07:30am 7.8 3.6 4.0 77 1.7 SSW 15 20 8 11 1029.1 1029.0 0.0
21/07:00am 6.9 2.7 3.7 80 1.4 SSW 15 20 8 11 1028.9 1028.8 0.0
21/06:30am 7.2 2.6 3.6 78 1.5 SSW 17 22 9 12 1028.7 1028.6 0.0
21/06:00am 7.4 3.2 3.6 77 1.6 SSW 15 20 8 11 1028.8 1028.7 0.0
21/05:30am 7.5 3.3 3.6 76 1.7 SSW 15 19 8 10 1028.7 1028.6 0.0
21/05:00am 7.8 3.2 3.7 75 1.8 SSW 17 22 9 12 1028.4 1028.3 0.0
21/04:30am 7.7 3.1 3.7 76 1.7 SSW 17 22 9 12 1028.2 1028.1 0.0
21/04:00am 7.3 2.7 3.9 79 1.5 SSW 17 20 9 11 1028.0 1027.9 0.0
21/03:30am 7.6 3.1 4.0 78 1.6 S 17 20 9 11 1028.2 1028.1 0.0
21/03:00am 7.5 3.0 4.1 79 1.5 SSW 17 22 9 12 1028.4 1028.3 0.0
21/02:30am 7.9 3.4 4.1 77 1.7 SSW 17 20 9 11 1028.8 1028.7 0.0
21/02:00am 7.9 3.4 4.1 77 1.6 SSW 17 20 9 11 1029.1 1029.0 0.0
21/01:30am 7.7 4.0 4.3 79 1.5 SSW 13 17 7 9 1029.5 1029.4 0.0
21/01:00am 7.9 4.2 4.7 80 1.4 SSW 13 19 7 10 1029.9 1029.8 0.0
21/12:30am 7.6 4.3 4.6 81 1.3 SSW 11 13 6 7 1030.2 1030.1 0.0
21/12:00am 7.4 4.5 4.5 82 1.3 SSW 9 11 5 6 1030.1 1030.0 0.0
 
Date/Time
EST
Temp
°C
App
Temp
°C
Dew
Point
Rel
Hum
%
Delta-T
°C
Wind Press
QNH
hPa
Press
MSL
hPa
Rain
since 9 am
mm
Dir
 
Spd
km/h
Gust
km/h
Spd
kts
Gust
kts
20/11:30pm 8.1 4.9 4.9 80 1.4 SSW 11 13 6 7 1030.1 1030.0 0.0
20/11:00pm 8.9 4.9 5.1 77 1.7 S 15 17 8 9 1030.1 1030.0 0.0
20/10:30pm 8.7 5.2 5.3 79 1.5 S 13 15 7 8 1030.2 1030.1 0.0
20/10:00pm 9.6 6.0 5.0 73 2.1 S 13 17 7 9 1030.3 1030.2 0.0
20/09:30pm 10.9 6.2 5.0 67 2.7 S 19 26 10 14 1029.9 1029.8 0.0
20/09:00pm 10.8 6.8 4.9 67 2.7 S 15 20 8 11 1030.0 1029.9 0.0
20/08:30pm 10.8 6.8 4.7 66 2.8 S 15 19 8 10 1030.0 1029.9 0.0
20/08:00pm 11.0 7.0 4.7 65 2.8 S 15 19 8 10 1029.8 1029.7 0.0
20/07:30pm 11.6 7.6 4.8 63 3.1 S 15 22 8 12 1029.8 1029.7 0.0
20/07:00pm 12.3 8.3 5.0 61 3.4 SSE 15 24 8 13 1029.7 1029.6 0.0
20/06:30pm 12.5 8.9 5.0 60 3.5 S 13 19 7 10 1029.6 1029.5 0.0
20/06:00pm 13.2 9.6 5.1 58 3.8 SSE 13 19 7 10 1029.4 1029.3 0.0
20/05:30pm 14.8 10.4 4.8 51 4.7 SSE 17 26 9 14 1029.0 1028.9 0.0
20/05:00pm 16.3 11.4 4.0 44 5.7 S 19 28 10 15 1028.7 1028.6 0.0
20/04:30pm 17.1 10.9 4.1 42 6.1 S 26 35 14 19 1028.7 1028.6 0.0
20/04:00pm 17.4 12.9 4.0 41 6.3 SE 17 26 9 14 1028.7 1028.6 0.0
20/03:30pm 17.9 11.5 3.4 38 6.8 S 26 35 14 19 1028.6 1028.5 0.0
20/03:00pm 17.8 11.4 3.3 38 6.7 S 26 33 14 18 1028.8 1028.7 0.0
20/02:30pm 18.7 13.0 4.8 40 6.7 S 24 33 13 18 1028.7 1028.6 0.0
20/02:00pm 18.5 13.0 3.9 38 6.9 S 22 37 12 20 1028.8 1028.7 0.0
20/01:30pm 18.2 13.7 4.0 39 6.7 SSE 17 26 9 14 1029.1 1029.0 0.0
20/01:00pm 17.6 13.3 3.1 38 6.7 SSE 15 28 8 15 1029.9 1029.8 0.0
20/12:30pm 17.4 13.6 6.0 47 5.6 SE 15 28 8 15 1030.2 1030.1 0.0
20/12:00pm 17.0 12.5 4.3 43 6.0 S 17 30 9 16 1030.9 1030.8 0.0
20/11:30am 16.5 12.0 4.2 44 5.8 S 17 32 9 17 1031.7 1031.5 0.0
20/11:00am 15.8 10.3 4.2 46 5.4 S 22 35 12 19 1031.6 1031.4 0.0
20/10:30am 14.4 8.5 3.8 49 4.9 S 24 32 13 17 1031.4 1031.2 0.0
20/10:00am 13.8 8.3 4.1 52 4.4 S 22 30 12 16 1031.6 1031.4 0.0
20/09:30am 12.7 6.8 3.9 55 4.0 SSW 24 30 13 16 1032.0 1031.8 0.0
20/09:00am 11.5 6.0 4.0 60 3.3 SSW 22 30 12 16 1032.5 1032.3 0.0
20/08:30am 10.1 6.0 4.3 67 2.6 SSW 15 22 8 12 1032.7 1032.5 0.0
20/08:00am 8.6 4.7 3.6 71 2.1 SSW 13 17 7 9 1032.6 1032.4 0.0
20/07:30am 7.3 4.2 3.4 76 1.7 SSW 9 11 5 6 1032.2 1032.0 0.0
20/07:00am 6.0 1.6 2.8 80 1.3 SSW 15 19 8 10 1031.9 1031.7 0.0
20/06:30am 5.8 1.7 2.4 79 1.4 SSW 13 19 7 10 1031.8 1031.6 0.0
20/06:00am 6.2 1.8 2.5 77 1.5 SSW 15 22 8 12 1031.6 1031.4 0.0
20/05:30am 6.2 1.8 2.7 78 1.5 SSW 15 20 8 11 1031.3 1031.1 0.0
20/05:00am 6.1 1.7 2.7 79 1.4 SSW 15 20 8 11 1030.9 1030.8 0.0
20/04:30am 6.0 1.6 2.6 79 1.4 SSW 15 19 8 10 1030.7 1030.6 0.0
20/04:00am 5.9 1.9 2.7 80 1.3 SSW 13 19 7 10 1030.6 1030.5 0.0
20/03:30am 5.8 1.4 2.8 81 1.2 SW 15 19 8 10 1030.4 1030.3 0.0
20/03:00am 5.3 1.7 2.7 83 1.1 SW 11 13 6 7 1030.6 1030.5 0.0
20/02:30am 6.3 2.2 2.4 76 1.6 SSW 13 17 7 9 1030.8 1030.7 0.0
20/02:00am 6.6 2.2 2.5 75 1.7 SSW 15 19 8 10 1030.9 1030.8 0.0
20/01:30am 6.9 2.1 2.4 73 1.9 SSW 17 20 9 11 1031.0 1030.9 0.0
20/01:00am 6.8 2.4 2.7 75 1.7 SSW 15 19 8 10 1031.0 1030.9 0.0
20/12:30am 6.9 2.9 2.8 75 1.7 SSW 13 17 7 9 1031.0 1030.9 0.0
20/12:00am 7.2 3.2 2.9 74 1.8 SSW 13 17 7 9 1031.2 1031.0 0.0
 
Date/Time
EST
Temp
°C
App
Temp
°C
Dew
Point
Rel
Hum
%
Delta-T
°C
Wind Press
QNH
hPa
Press
MSL
hPa
Rain
since 9 am
mm
Dir
 
Spd
km/h
Gust
km/h
Spd
kts
Gust
kts
19/11:30pm 7.6 3.3 3.1 73 1.9 SSW 15 20 8 11 1031.2 1031.0 0.0
19/11:00pm 7.7 3.4 3.2 73 1.9 SSW 15 17 8 9 1031.0 1030.9 0.0
19/10:30pm 7.6 3.3 3.3 74 1.8 SSW 15 19 8 10 1031.0 1030.9 0.0
19/10:00pm 8.0 3.0 3.7 74 1.8 SSW 19 24 10 13 1030.9 1030.8 0.0
19/09:30pm 8.6 3.4 3.8 72 2.1 SSW 20 26 11 14 1030.7 1030.6 0.0
19/09:00pm 8.8 3.9 4.0 72 2.1 SSW 19 26 10 14 1030.5 1030.4 0.0
19/08:30pm 9.1 4.2 4.1 71 2.2 SSW 19 24 10 13 1030.0 1029.9 0.0
19/08:00pm 9.4 4.6 4.4 71 2.2 SSW 19 22 10 12 1029.7 1029.6 0.0
19/07:30pm 10.1 3.9 4.5 68 2.5 SSW 26 33 14 18 1029.1 1029.0 0.0
19/07:00pm 10.4 4.3 4.8 68 2.5 SSW 26 35 14 19 1028.5 1028.4 0.0
19/06:30pm 11.0 4.1 4.7 65 2.9 SSW 30 39 16 21 1027.9 1027.8 0.0
19/06:00pm 11.7 4.9 5.1 64 3.0 SW 30 39 16 21 1027.2 1027.1 0.0
19/05:30pm 13.1 6.3 2.9 50 4.5 SSW 28 39 15 21 1026.7 1026.6 0.0
19/05:00pm 13.9 4.7 1.5 43 5.4 SSW 39 52 21 28 1026.3 1026.2 0.0
19/04:41pm 14.4 6.5 1.3 41 5.7 SSW 32 52 17 28 1026.0 1025.8 0.0
19/04:30pm 14.6 6.9 2.2 43 5.5 SSW 32 44 17 24 1025.9 1025.7 0.0
19/04:00pm 15.4 8.0 3.9 46 5.3 SSW 32 43 17 23 1025.5 1025.3 0.0
19/03:30pm 15.6 7.8 2.7 42 5.8 SSW 33 46 18 25 1025.1 1024.9 0.0
19/03:00pm 15.7 8.2 4.4 47 5.3 SSW 33 44 18 24 1024.9 1024.7 0.0
19/02:30pm 15.7 7.9 5.0 49 5.1 SSW 35 46 19 25 1024.7 1024.5 0.0
19/02:00pm 15.9 7.8 6.9 55 4.4 SSW 39 48 21 26 1024.4 1024.2 0.0
19/01:30pm 15.8 7.8 5.7 51 4.9 SSW 37 52 20 28 1024.4 1024.2 0.0
19/01:00pm 15.8 7.5 6.0 52 4.7 SSW 39 52 21 28 1024.2 1024.0 0.0
19/12:30pm 15.4 7.1 5.9 53 4.6 SSW 39 52 21 28 1024.3 1024.1 0.0
19/12:00pm 15.1 7.7 6.7 57 4.1 SW 35 48 19 26 1024.3 1024.1 0.0
19/11:30am 15.0 7.6 6.8 58 4.0 SSW 35 50 19 27 1024.3 1024.1 0.0
19/11:00am 14.3 6.6 6.9 61 3.6 SW 37 52 20 28 1024.1 1023.9 0.0
19/10:30am 14.0 6.8 7.5 65 3.2 SW 35 50 19 27 1023.8 1023.6 0.0
19/10:00am 12.9 4.8 7.1 68 2.8 SW 39 48 21 26 1023.7 1023.5 0.0
19/09:30am 12.4 4.9 7.9 74 2.2 SW 37 48 20 26 1023.4 1023.2 0.0
19/09:00am 11.6 4.8 7.5 76 2.0 SW 33 46 18 25 1023.1 1022.9 6.6
19/08:30am 10.7 4.5 7.9 83 1.4 SW 30 39 16 21 1022.9 1022.8 6.6
19/08:00am 10.0 4.6 7.8 86 1.1 SW 26 35 14 19 1022.2 1022.1 6.6
19/07:30am 9.3 4.6 7.6 89 0.8 SW 22 32 12 17 1021.5 1021.4 6.6
19/07:00am 8.8 4.4 7.4 91 0.7 SW 20 26 11 14 1020.9 1020.8 6.6
19/06:30am 8.9 4.2 7.7 92 0.6 SW 22 32 12 17 1020.4 1020.3 6.6
19/06:00am 9.3 4.3 7.9 91 0.7 SW 24 37 13 20 1019.8 1019.7 6.6
19/05:30am 9.4 4.8 8.2 92 0.6 WSW 22 30 12 16 1019.5 1019.4 6.6
19/05:00am 9.9 4.3 8.7 92 0.6 WSW 28 35 15 19 1019.1 1018.9 6.6
19/04:30am 10.2 5.4 9.0 92 0.6 WSW 24 33 13 18 1018.6 1018.4 6.6
19/04:00am 10.8 6.7 10.0 95 0.4 WSW 22 33 12 18 1018.3 1018.1 6.6
19/03:30am 10.8 6.5 9.4 91 0.7 WSW 22 32 12 17 1018.0 1017.8 6.6
19/03:00am 10.7 7.1 10.4 98 0.2 SW 20 28 11 15 1017.3 1017.1 6.6
19/02:30am 10.8 5.7 10.5 98 0.2 SW 28 39 15 21 1017.8 1017.6 6.4
19/02:00am 11.4 7.2 11.1 98 0.2 SW 24 32 13 17 1017.4 1017.2 6.2
19/01:30am 11.9 7.8 11.6 98 0.2 SW 24 32 13 17 1017.1 1016.9 6.0
19/01:00am 14.4 11.7 13.0 91 0.8 W 19 30 10 16 1016.6 1016.4 5.2
19/12:30am 14.6 12.8 12.1 85 1.4 WNW 13 20 7 11 1016.2 1016.0 5.2
19/12:00am 14.7 12.8 11.8 83 1.6 WNW 13 20 7 11 1016.2 1016.0 5.2
 
Date/Time
EST
Temp
°C
App
Temp
°C
Dew
Point
Rel
Hum
%
Delta-T
°C
Wind Press
QNH
hPa
Press
MSL
hPa
Rain
since 9 am
mm
Dir
 
Spd
km/h
Gust
km/h
Spd
kts
Gust
kts
18/11:30pm 14.2 13.1 11.9 86 1.2 NW 9 15 5 8 1016.0 1015.8 5.2
18/11:00pm 14.1 12.8 12.5 90 0.9 NNW 11 15 6 8 1016.2 1016.0 5.2
18/10:30pm 13.9 12.8 12.1 89 1.0 NW 9 13 5 7 1016.2 1016.0 5.2
18/10:00pm 12.9 12.0 12.6 98 0.2 NNW 9 11 5 6 1016.3 1016.1 5.2
18/09:30pm 12.7 11.7 12.4 98 0.2 NNW 9 9 5 5 1016.1 1015.9 5.2
18/09:00pm 13.0 12.4 12.2 95 0.4 NNW 7 9 4 5 1016.0 1015.8 5.2
18/08:30pm 13.1 12.7 12.3 95 0.4 NW 6 9 3 5 1015.7 1015.5 5.2
18/08:00pm 13.4 13.0 12.3 93 0.6 WNW 6 7 3 4 1015.2 1015.0 5.2
18/07:30pm 13.7 13.4 12.6 93 0.6 WNW 6 9 3 5 1015.2 1015.0 5.2
18/07:00pm 14.3 13.5 12.9 91 0.8 WNW 9 13 5 7 1015.0 1014.8 5.2
18/06:30pm 14.5 13.4 13.0 91 0.8 W 11 15 6 8 1014.3 1014.2 5.2

Other Formats:

Comma delimited format used in spreadsheet applications
http://www.bom.gov.au/fwo/IDV60801/IDV60801.94862.axf

JavaScript Object Notation format (JSON) in row-major order
http://www.bom.gov.au/fwo/IDV60801/IDV60801.94862.json